Погода Толейнына 2 недели

Варминско-Мазурское воеводство, Польша

15 - 28 июля
  • 15июля
    Сегодня
    +17°
    +27°
    Практически безоблачно
    ВремяПогодаТемператураВлажностьДавлениеВетер, м/сВероятность осадков
    02:00Облачно с прояснениями+17°C80 %751 мм2.0 м/с1 %
    05:00Небольшая облачность+17°C79 %752 мм1.8 м/с2 %
    08:00Практически безоблачно+21°C72 %752 мм1.5 м/с5 %
    11:00Небольшая облачность+23°C61 %752 мм1.5 м/с11 %
    14:00Практически безоблачно+25°C58 %752 мм1.4 м/с9 %
    17:00Ясно и безоблачно+26°C50 %752 мм1.0 м/с2 %
    20:00Ясно и безоблачно+24°C74 %752 мм1.2 м/с2 %
    23:00Облачно с прояснениями+20°C75 %752 мм1.6 м/с2 %
  • 16июля
    Вторник
    +18°
    +31°
    Облачно с прояснениями
    ВремяПогодаТемператураВлажностьДавлениеВетер, м/сВероятность осадков
    02:00Ясно и безоблачно+18°C86 %751 мм2.0 м/с2 %
    05:00Ясно и безоблачно+18°C88 %751 мм2.6 м/с2 %
    08:00Ясно и безоблачно+23°C68 %751 мм3.3 м/с2 %
    11:00Облачно с прояснениями+28°C51 %750 мм4.9 м/с2 %
    14:00Облачно с прояснениями+30°C44 %749 мм4.9 м/с3 %
    17:00Облачно с прояснениями+30°C42 %748 мм3.4 м/с28 %
    20:00Облачно с прояснениями, ливень+23°C84 %748 мм3.5 м/с81 %
    23:00Пасмурно, дожди с грозами+21°C95 %749 мм2.3 м/с59 %
  • 17июля
    Среда
    +15°
    +26°
    Небольшая облачность
    ВремяПогодаТемператураВлажностьДавлениеВетер, м/сВероятность осадков
    02:00Облачно с прояснениями+19°C96 %749 мм3.8 м/с32 %
    05:00Практически безоблачно+18°C96 %750 мм4.0 м/с6 %
    08:00Ясно и безоблачно+20°C86 %752 мм3.4 м/с8 %
    11:00Практически безоблачно+24°C56 %753 мм5.2 м/с17 %
    14:00Небольшая облачность+25°C50 %753 мм5.5 м/с6 %
    17:00Практически безоблачно+25°C50 %754 мм5.5 м/с4 %
    20:00Небольшая облачность+21°C60 %754 мм3.2 м/с4 %
    23:00Ясно и безоблачно+18°C78 %755 мм1.9 м/с3 %
  • 18июля
    Четверг
    +13°
    +24°
    Практически безоблачно
    ВремяПогодаТемператураВлажностьДавлениеВетер, м/сВероятность осадков
    02:00Ясно и безоблачно+17°C85 %755 мм2.3 м/с2 %
    05:00Ясно и безоблачно+16°C89 %756 мм1.9 м/с2 %
    08:00Ясно и безоблачно+19°C75 %756 мм2.7 м/с2 %
    11:00Ясно и безоблачно+21°C58 %757 мм4.6 м/с8 %
    14:00Практически безоблачно+23°C52 %756 мм4.3 м/с16 %
    17:00Облачно с прояснениями+24°C49 %756 мм3.9 м/с8 %
    20:00Облачно с прояснениями+21°C65 %756 мм1.7 м/с2 %
    23:00Облачно с прояснениями+16°C84 %757 мм1.9 м/с2 %
  • 19июля
    Пятница
    +12°
    +24°
    Ясно и безоблачно
    ВремяПогодаТемператураВлажностьДавлениеВетер, м/сВероятность осадков
    02:00Практически безоблачно+15°C87 %756 мм0.7 м/с2 %
    05:00Ясно и безоблачно+15°C91 %756 мм1.9 м/с2 %
    08:00Ясно и безоблачно+18°C70 %756 мм2.6 м/с2 %
    11:00Ясно и безоблачно+20°C55 %756 мм3.6 м/с4 %
    14:00Ясно и безоблачно+23°C49 %756 мм3.6 м/с10 %
    17:00Небольшая облачность+24°C40 %754 мм3.4 м/с6 %
    20:00Ясно и безоблачно+20°C64 %754 мм2.7 м/с2 %
    23:00Ясно и безоблачно+15°C85 %754 мм2.0 м/с2 %
Мы используем cookies
Соглашаюсь